DSM weather

Des Moines International Airport
Des Moines, Iowa, United States

Public forecast

Using degrees Fahrenheit for public forecast. Weather courtesy of forecast.io.

METAR (pilot weather report)

Retrieved 2019/06/19 14:32 UTC (0 seconds ago):

KDSM 191432Z 01007KT 10SM BKN010 BKN041 OVC100 19/17 A2978

TAF (pilot weather forecast)

Retrieved 2019/06/19 12:22 UTC (2 hours ago):

TAF KDSM 191120Z 1912/2012 05004KT P6SM VCSH SCT012 OVC050 TEMPO 1912/1914 OVC012 FM200500 VRB03KT P6SM SCT100